Time;durP1;ratioP1;P1;durP2;ratioP2;P2;SDS_P1;SDS_P2;PMS_P1;PMS_P2;Temp;Humidity;BMP_temperature;BMP_pressure;BME280_temperature;BME280_humidity;BME280_pressure;Samples;Min_cycle;Max_cycle;Signal;HPM_P1;HPM_P2
2023/06/22 00:00:41;;;;;;;7.00;4.38;;;;;;;20.53;100.00;101806.44;5262729;28;20032;-66
2023/06/22 00:03:13;;;;;;;5.20;4.65;;;;;;;20.38;100.00;101784.72;5266698;28;20024;-65
2023/06/22 00:05:45;;;;;;;5.53;4.68;;;;;;;20.45;100.00;101790.25;5266921;28;20750;-67
2023/06/22 00:08:18;;;;;;;7.40;5.13;;;;;;;20.47;100.00;101790.91;5266618;28;20409;-65
2023/06/22 00:10:49;;;;;;;5.45;4.95;;;;;;;20.42;100.00;101803.31;5263844;28;20599;-67
2023/06/22 00:13:20;;;;;;;7.18;5.40;;;;;;;20.36;100.00;101804.91;5267008;28;20445;-66
2023/06/22 00:15:52;;;;;;;6.15;5.05;;;;;;;20.37;100.00;101793.88;5267417;28;20028;-66
2023/06/22 00:18:27;;;;;;;7.40;5.53;;;;;;;20.40;100.00;101795.38;5266535;28;20437;-66
2023/06/22 00:20:59;;;;;;;7.10;5.82;;;;;;;20.39;100.00;101796.41;5268927;28;20020;-64
2023/06/22 00:23:34;;;;;;;6.13;4.95;;;;;;;20.31;100.00;101800.03;5267174;28;20024;-66
2023/06/22 00:26:05;;;;;;;5.90;5.05;;;;;;;20.27;100.00;101797.88;5264502;28;20517;-65
2023/06/22 00:28:36;;;;;;;6.85;5.63;;;;;;;20.20;100.00;101801.31;5265279;28;20532;-66
2023/06/22 00:31:07;;;;;;;6.82;5.30;;;;;;;20.19;100.00;101788.78;5268212;28;20032;-65
2023/06/22 00:33:39;;;;;;;7.78;5.90;;;;;;;20.15;100.00;101795.59;5262905;28;20361;-66
2023/06/22 00:36:13;;;;;;;6.40;5.30;;;;;;;20.11;100.00;101793.44;5262970;28;20419;-66
2023/06/22 00:38:44;;;;;;;6.20;5.60;;;;;;;20.04;100.00;101793.34;5264553;28;20461;-66
2023/06/22 00:41:15;;;;;;;7.65;5.65;;;;;;;19.96;100.00;101783.41;5263017;28;20492;-67
2023/06/22 00:43:47;;;;;;;7.10;5.60;;;;;;;19.96;100.00;101785.28;5261552;28;20038;-67
2023/06/22 00:46:18;;;;;;;6.15;5.50;;;;;;;19.93;100.00;101786.50;5263472;28;20570;-66
2023/06/22 00:48:51;;;;;;;7.35;6.40;;;;;;;19.89;100.00;101790.56;5263269;28;20052;-68
2023/06/22 00:51:24;;;;;;;8.77;6.13;;;;;;;19.80;100.00;101784.38;5265229;28;20413;-65
2023/06/22 00:53:55;;;;;;;8.52;6.70;;;;;;;19.74;100.00;101785.09;5261440;28;20099;-66
2023/06/22 00:56:29;;;;;;;7.15;6.28;;;;;;;19.73;100.00;101782.56;5263443;28;20054;-67
2023/06/22 00:59:03;;;;;;;8.85;6.93;;;;;;;19.70;100.00;101780.19;5264281;28;20647;-65
2023/06/22 01:01:35;;;;;;;7.25;6.30;;;;;;;19.66;100.00;101777.00;5263605;28;20059;-65
2023/06/22 01:04:06;;;;;;;7.93;6.63;;;;;;;19.58;100.00;101780.63;5261148;28;20871;-65
2023/06/22 01:06:47;;;;;;;7.13;6.53;;;;;;;19.58;100.00;101780.63;5267233;28;20189;-66
2023/06/22 01:09:27;;;;;;;9.13;6.90;;;;;;;19.53;100.00;101779.44;5262843;28;20024;-65
2023/06/22 01:12:04;;;;;;;11.13;7.07;;;;;;;19.49;100.00;101778.13;5265261;28;20028;-66
2023/06/22 01:14:43;;;;;;;8.05;7.10;;;;;;;19.43;100.00;101777.81;5261281;28;20164;-66
2023/06/22 01:17:16;;;;;;;9.55;7.40;;;;;;;19.44;100.00;101771.41;5266171;28;20543;-66
2023/06/22 01:19:52;;;;;;;8.23;7.53;;;;;;;19.35;100.00;101775.16;5264692;28;20036;-66
2023/06/22 01:22:28;;;;;;;8.55;7.75;;;;;;;19.43;100.00;101783.22;5263317;28;20081;-68
2023/06/22 01:25:12;;;;;;;8.55;7.65;;;;;;;19.45;100.00;101781.19;5263849;28;20546;-67
2023/06/22 01:28:31;;;;;;;9.38;7.53;;;;;;;19.56;100.00;101792.63;5265727;28;20497;-66
2023/06/22 01:31:05;;;;;;;9.73;8.15;;;;;;;19.34;100.00;101780.78;5245250;28;20482;-67
2023/06/22 01:33:40;;;;;;;9.57;8.45;;;;;;;19.37;100.00;101769.56;5262922;28;20028;-68
2023/06/22 01:36:13;;;;;;;9.40;7.73;;;;;;;19.43;100.00;101777.81;5266253;28;20020;-66
2023/06/22 01:38:45;;;;;;;11.52;8.45;;;;;;;19.40;100.00;101772.75;5266501;28;20082;-67
2023/06/22 01:41:17;;;;;;;9.52;8.48;;;;;;;19.41;100.00;101771.75;5269888;28;20101;-67
2023/06/22 01:43:49;;;;;;;9.38;8.48;;;;;;;19.33;100.00;101774.50;5265200;28;20036;-67
2023/06/22 01:46:22;;;;;;;11.43;8.65;;;;;;;19.35;100.00;101775.16;5265476;28;20134;-65
2023/06/22 01:48:54;;;;;;;10.23;9.10;;;;;;;19.38;100.00;101780.22;5266303;28;20082;-66
2023/06/22 01:51:26;;;;;;;13.27;8.90;;;;;;;19.34;100.00;101769.97;5268665;28;20029;-66
2023/06/22 01:53:57;;;;;;;9.35;8.48;;;;;;;19.26;100.00;101768.13;5265830;28;20509;-68
2023/06/22 01:56:28;;;;;;;9.77;8.60;;;;;;;19.27;100.00;101772.53;5265700;28;20040;-67
2023/06/22 01:59:15;;;;;;;9.50;8.57;;;;;;;19.29;100.00;101772.34;5261703;28;20036;-65
2023/06/22 02:02:15;;;;;;;11.77;9.60;;;;;;;19.33;100.00;101766.38;5271421;28;20060;-65
2023/06/22 02:04:55;;;;;;;10.23;9.23;;;;;;;19.25;100.00;101766.44;5264762;28;20623;-66
2023/06/22 02:07:36;;;;;;;10.35;9.32;;;;;;;19.23;100.00;101768.47;5277488;28;20457;-66
2023/06/22 02:10:12;;;;;;;10.80;9.77;;;;;;;19.21;100.00;101767.81;5271007;28;20036;-66
2023/06/22 02:12:44;;;;;;;13.65;10.35;;;;;;;19.16;100.00;101764.78;5266768;28;20027;-66
2023/06/22 02:15:16;;;;;;;11.10;10.00;;;;;;;19.10;100.00;101769.03;5269440;28;20058;-66
2023/06/22 02:17:48;;;;;;;15.55;10.73;;;;;;;19.08;100.00;101768.38;5269923;28;20032;-68
2023/06/22 02:20:20;;;;;;;12.45;10.63;;;;;;;19.06;100.00;101771.25;5272793;28;20520;-68
2023/06/22 02:22:51;;;;;;;11.77;10.65;;;;;;;19.02;100.00;101779.88;5272604;28;20019;-67
2023/06/22 02:25:22;;;;;;;15.30;10.85;;;;;;;19.05;100.00;101766.03;5266978;28;20658;-67
2023/06/22 02:27:54;;;;;;;13.07;11.70;;;;;;;19.07;100.00;101764.84;5268878;28;20331;-67
2023/06/22 02:30:25;;;;;;;11.93;10.73;;;;;;;19.08;100.00;101757.56;5273517;28;20028;-67
2023/06/22 02:32:59;;;;;;;12.30;10.88;;;;;;;18.95;100.00;101750.03;5273239;28;20802;-66
2023/06/22 02:35:31;;;;;;;12.68;11.38;;;;;;;19.03;100.00;101747.28;5271964;28;20093;-66
2023/06/22 02:38:04;;;;;;;14.82;11.48;;;;;;;18.97;100.00;101753.41;5271664;28;20024;-67
2023/06/22 02:40:35;;;;;;;12.07;10.88;;;;;;;18.92;100.00;101752.25;5270243;28;20028;-65
2023/06/22 02:43:06;;;;;;;15.05;11.75;;;;;;;18.91;100.00;101750.56;5265454;28;20063;-67
2023/06/22 02:45:38;;;;;;;12.40;11.23;;;;;;;18.93;100.00;101749.34;5265117;28;20029;-66
2023/06/22 02:48:09;;;;;;;13.35;11.35;;;;;;;18.88;100.00;101744.47;5268865;28;20123;-66
2023/06/22 02:50:41;;;;;;;12.90;11.60;;;;;;;18.83;100.00;101746.03;5266556;28;20135;-66
2023/06/22 02:53:12;;;;;;;13.20;11.90;;;;;;;18.82;100.00;101750.56;5268261;28;20024;-67
2023/06/22 02:55:43;;;;;;;13.07;11.73;;;;;;;18.83;100.00;101752.28;5270563;28;20399;-67
2023/06/22 02:58:15;;;;;;;13.52;11.68;;;;;;;18.76;100.00;101751.25;5272833;28;20109;-65
2023/06/22 03:00:46;;;;;;;13.75;11.45;;;;;;;18.83;100.00;101737.94;5265627;28;20754;-66
2023/06/22 03:03:17;;;;;;;14.13;11.65;;;;;;;18.73;100.00;101743.50;5268153;28;20032;-66
2023/06/22 03:05:49;;;;;;;14.82;12.50;;;;;;;18.76;100.00;101732.34;5269326;28;20109;-67
2023/06/22 03:08:20;;;;;;;14.52;11.27;;;;;;;18.71;100.00;101726.63;5275327;28;20024;-66
2023/06/22 03:10:51;;;;;;;12.32;11.02;;;;;;;18.71;100.00;101730.16;5271142;28;20480;-66
2023/06/22 03:13:23;;;;;;;12.77;11.48;;;;;;;18.69;100.00;101729.50;5269534;28;20028;-66
2023/06/22 03:15:55;;;;;;;13.18;11.85;;;;;;;18.57;100.00;101717.38;5267858;28;20036;-67
2023/06/22 03:18:27;;;;;;;15.82;12.30;;;;;;;18.56;100.00;101721.06;5271883;28;20143;-66
2023/06/22 03:20:58;;;;;;;14.07;12.13;;;;;;;18.60;100.00;101711.63;5268178;28;20028;-67
2023/06/22 03:23:30;;;;;;;13.07;11.68;;;;;;;18.61;100.00;101715.16;5268528;28;20035;-66
2023/06/22 03:26:01;;;;;;;15.23;12.32;;;;;;;18.52;100.00;101712.47;5269300;28;20024;-66
2023/06/22 03:28:32;;;;;;;14.65;12.57;;;;;;;18.47;100.00;101708.63;5270148;28;20374;-66
2023/06/22 03:31:06;;;;;;;15.50;12.60;;;;;;;18.46;100.00;101704.22;5267130;28;20028;-66
2023/06/22 03:33:37;;;;;;;14.00;12.60;;;;;;;18.42;100.00;101705.59;5266753;28;20044;-66
2023/06/22 03:36:09;;;;;;;14.32;12.88;;;;;;;18.38;100.00;101712.38;5271167;28;20571;-67
2023/06/22 03:38:40;;;;;;;15.45;12.38;;;;;;;18.36;100.00;101709.00;5266205;28;20044;-65
2023/06/22 03:41:11;;;;;;;14.55;12.27;;;;;;;18.34;100.00;101711.88;5267001;28;20031;-66
2023/06/22 03:43:43;;;;;;;16.20;12.27;;;;;;;18.37;100.00;101707.97;5271780;28;20027;-67
2023/06/22 03:46:14;;;;;;;15.85;11.82;;;;;;;18.31;100.00;101702.25;5269369;28;20577;-69
2023/06/22 03:48:46;;;;;;;13.02;11.82;;;;;;;18.31;100.00;101702.25;5266442;28;20420;-65
2023/06/22 03:51:17;;;;;;;14.35;12.65;;;;;;;18.27;100.00;101705.47;5264218;28;20531;-66
2023/06/22 03:53:48;;;;;;;15.73;12.95;;;;;;;18.26;100.00;101695.69;5268211;28;20032;-65
2023/06/22 03:56:20;;;;;;;15.38;12.70;;;;;;;18.32;100.00;101695.00;5268253;28;20023;-66
2023/06/22 03:58:52;;;;;;;16.52;12.38;;;;;;;18.33;100.00;101688.56;5270465;28;20444;-67
2023/06/22 04:01:23;;;;;;;13.85;12.43;;;;;;;18.27;100.00;101700.91;5270188;28;20035;-66
2023/06/22 04:03:54;;;;;;;14.40;13.00;;;;;;;18.25;100.00;101702.94;5265289;28;20016;-66
2023/06/22 04:06:26;;;;;;;15.25;12.80;;;;;;;18.21;100.00;101698.88;5268441;28;20406;-67
2023/06/22 04:08:57;;;;;;;15.93;13.35;;;;;;;18.27;100.00;101700.91;5267908;28;20032;-65
2023/06/22 04:11:28;;;;;;;15.68;13.57;;;;;;;18.30;100.00;101702.41;5272173;28;20035;-67
2023/06/22 04:14:00;;;;;;;16.23;13.15;;;;;;;18.33;100.00;101708.31;5267632;28;20035;-65
2023/06/22 04:16:31;;;;;;;14.68;13.00;;;;;;;18.33;100.00;101702.91;5270637;28;20029;-65
2023/06/22 04:19:03;;;;;;;15.43;13.90;;;;;;;18.32;100.00;101701.25;5269353;28;20027;-64
2023/06/22 04:21:34;;;;;;;15.65;13.10;;;;;;;18.38;100.00;101696.16;5271607;28;20024;-66
2023/06/22 04:24:06;;;;;;;15.18;13.05;;;;;;;18.39;100.00;101703.22;5272037;28;20397;-66
2023/06/22 04:26:37;;;;;;;14.82;13.32;;;;;;;18.49;100.00;101703.88;5271098;28;20036;-64
2023/06/22 04:29:08;;;;;;;16.80;13.15;;;;;;;18.48;100.00;101704.91;5275305;28;20384;-67
2023/06/22 04:31:40;;;;;;;20.17;15.48;;;;;;;18.52;100.00;101711.66;5269041;28;20056;-65
2023/06/22 04:34:12;;;;;;;16.02;13.82;;;;;;;18.60;100.00;101708.06;5266039;28;20029;-64
2023/06/22 04:36:45;;;;;;;14.32;12.70;;;;;;;18.66;100.00;101704.69;5268756;28;20527;-65
2023/06/22 04:39:16;;;;;;;15.20;13.32;;;;;;;18.75;100.00;101710.91;5268356;28;20048;-66
2023/06/22 04:41:47;;;;;;;14.27;12.77;;;;;;;18.79;100.00;101704.09;5269806;28;20557;-66
2023/06/22 04:44:25;;;;;;;16.02;13.15;;;;;;;18.89;100.00;101700.19;5271514;28;20442;-65
2023/06/22 04:47:03;;;;;;;14.40;12.48;;;;;;;18.89;100.00;101705.59;5268034;28;20031;-65
2023/06/22 04:49:40;;;;;;;14.68;12.93;;;;;;;19.03;100.00;101712.13;5269178;28;20039;-65
2023/06/22 04:52:13;;;;;;;18.80;13.95;;;;;;;19.08;100.00;101717.84;5264501;28;20476;-66
2023/06/22 04:54:55;;;;;;;14.57;12.90;;;;;;;19.07;100.00;101710.78;5267245;28;20025;-65
2023/06/22 04:57:31;;;;;;;13.75;12.30;;;;;;;19.12;100.00;101704.81;5275674;28;20111;-65
2023/06/22 05:00:12;;;;;;;16.00;13.38;;;;;;;19.16;100.00;101706.16;5269679;28;20701;-66
2023/06/22 05:02:45;;;;;;;15.00;13.43;;;;;;;19.22;100.00;101701.91;5267426;28;20028;-64
2023/06/22 05:05:16;;;;;;;15.95;13.35;;;;;;;19.27;100.00;101697.63;5265446;28;20401;-64
2023/06/22 05:07:52;;;;;;;15.52;13.63;;;;;;;19.34;100.00;101697.75;5272246;28;20032;-66
2023/06/22 05:10:24;;;;;;;17.05;13.57;;;;;;;19.44;100.00;101689.38;5268513;28;20340;-66
2023/06/22 05:12:55;;;;;;;14.48;12.98;;;;;;;19.51;100.00;101697.63;5269704;28;20537;-66
2023/06/22 05:15:30;;;;;;;14.65;13.05;;;;;;;19.50;100.00;101704.06;5266495;28;20410;-66
2023/06/22 05:18:05;;;;;;;14.45;12.93;;;;;;;19.64;100.00;101700.56;5262857;28;20040;-66
2023/06/22 05:20:36;;;;;;;15.88;14.38;;;;;;;19.61;100.00;101707.19;5266621;28;20034;-65
2023/06/22 05:23:07;;;;;;;15.35;13.80;;;;;;;19.74;100.00;101700.34;5266983;28;20021;-66
2023/06/22 05:25:39;;;;;;;16.60;14.88;;;;;;;19.75;100.00;101700.16;5268553;28;20039;-67
2023/06/22 05:28:11;;;;;;;19.33;15.13;;;;;;;19.79;100.00;101700.63;5269177;28;20036;-66
2023/06/22 05:30:42;;;;;;;16.77;15.18;;;;;;;19.75;100.00;101700.16;5267805;28;20031;-66
2023/06/22 05:33:13;;;;;;;17.35;15.57;;;;;;;19.79;100.00;101700.63;5268954;28;20035;-65
2023/06/22 05:35:45;;;;;;;17.35;15.55;;;;;;;19.81;100.00;101694.03;5267339;28;20024;-66
2023/06/22 05:38:16;;;;;;;18.02;16.13;;;;;;;19.86;100.00;101690.75;5272555;28;20029;-66
2023/06/22 05:40:47;;;;;;;16.55;14.48;;;;;;;19.88;100.00;101693.28;5271627;28;20373;-65
2023/06/22 05:43:19;;;;;;;19.50;16.50;;;;;;;19.89;100.00;101693.09;5272778;28;20063;-66
2023/06/22 05:45:50;;;;;;;18.05;16.10;;;;;;;19.95;100.00;101694.22;5272845;28;20028;-65
2023/06/22 05:48:21;;;;;;;17.55;15.63;;;;;;;20.11;100.00;101698.66;5274266;28;20056;-66
2023/06/22 05:50:53;;;;;;;19.25;15.65;;;;;;;20.14;100.00;101699.16;5267106;28;20321;-67
2023/06/22 05:53:25;;;;;;;19.20;16.48;;;;;;;20.24;100.00;101700.72;5273430;28;20035;-66
2023/06/22 05:55:56;;;;;;;17.35;15.60;;;;;;;20.37;100.00;101692.78;5271201;28;20025;-66
2023/06/22 05:58:28;;;;;;;17.83;15.43;;;;;;;20.42;100.00;101692.22;5270585;28;20177;-65
2023/06/22 06:01:00;;;;;;;17.45;15.65;;;;;;;20.41;100.00;101694.09;5269397;28;20035;-65
2023/06/22 06:03:31;;;;;;;19.15;15.93;;;;;;;20.53;100.00;101699.88;5270429;28;20032;-65
2023/06/22 06:06:03;;;;;;;18.85;16.67;;;;;;;20.50;100.00;101692.16;5264637;28;20619;-66
2023/06/22 06:08:34;;;;;;;17.70;15.90;;;;;;;20.67;100.00;101690.09;5261719;28;20482;-76
2023/06/22 06:11:05;;;;;;;20.42;16.73;;;;;;;20.70;100.00;101689.72;5267117;28;20056;-66
2023/06/22 06:13:37;;;;;;;18.83;16.83;;;;;;;20.81;100.00;101686.53;5258925;28;20032;-65
2023/06/22 06:16:08;;;;;;;18.52;16.65;;;;;;;20.78;100.00;101684.19;5255168;28;20430;-65
2023/06/22 06:18:40;;;;;;;18.48;16.17;;;;;;;20.82;100.00;101692.78;5268416;28;20553;-65
2023/06/22 06:21:11;;;;;;;18.67;15.45;;;;;;;20.90;100.00;101687.28;5273487;28;20385;-65
2023/06/22 06:23:42;;;;;;;18.15;16.17;;;;;;;20.96;100.00;101694.63;5278722;28;20439;-64
2023/06/22 06:26:16;;;;;;;19.38;17.33;;;;;;;20.90;100.00;101690.81;5274835;28;20380;-65
2023/06/22 06:28:47;;;;;;;22.08;17.58;;;;;;;21.03;100.00;101694.72;5270188;28;20497;-65
2023/06/22 06:31:18;;;;;;;18.67;16.80;;;;;;;21.12;100.00;101694.38;5278641;28;20032;-65
2023/06/22 06:33:50;;;;;;;19.67;16.15;;;;;;;21.07;100.00;101693.28;5273606;28;20119;-66
2023/06/22 06:36:21;;;;;;;19.25;16.67;;;;;;;21.18;100.00;101686.50;5276097;28;20028;-65
2023/06/22 06:38:53;;;;;;;19.15;17.15;;;;;;;21.17;100.00;101682.13;5271932;28;20021;-66
2023/06/22 06:41:24;;;;;;;18.15;16.17;;;;;;;21.24;100.00;101692.03;5274792;28;20042;-66
2023/06/22 06:43:55;;;;;;;19.05;16.48;;;;;;;21.20;100.00;101688.03;5272132;28;20447;-65
2023/06/22 06:46:27;;;;;;;17.77;16.08;;;;;;;21.34;100.00;101692.53;5270497;28;20097;-66
2023/06/22 06:48:58;;;;;;;18.92;16.10;;;;;;;21.39;100.00;101697.41;5269836;28;20034;-65
2023/06/22 06:51:29;;;;;;;19.27;16.88;;;;;;;21.44;100.00;101697.66;5271279;28;20051;-65
2023/06/22 06:54:03;;;;;;;20.30;17.55;;;;;;;21.44;100.00;101691.38;5270282;28;21883;-65
2023/06/22 06:56:34;;;;;;;18.70;16.75;;;;;;;21.38;100.00;101689.44;5270230;28;20036;-65
2023/06/22 06:59:05;;;;;;;21.10;17.30;;;;;;;21.47;100.00;101696.47;5272215;28;20118;-65
2023/06/22 07:01:36;;;;;;;19.63;17.52;;;;;;;21.46;100.00;101698.34;5267969;28;20039;-65
2023/06/22 07:04:08;;;;;;;20.40;17.13;;;;;;;21.44;100.00;101692.25;5271864;28;20239;-64
2023/06/22 07:06:39;;;;;;;21.65;17.63;;;;;;;21.50;100.00;101696.06;5273151;28;20551;-65
2023/06/22 07:09:10;;;;;;;20.23;16.63;;;;;;;21.51;100.00;101693.16;5267757;28;20175;-66
2023/06/22 07:11:42;;;;;;;20.40;16.55;;;;;;;21.52;100.00;101694.84;5268026;28;20557;-65
2023/06/22 07:14:13;;;;;;;19.33;17.33;;;;;;;21.48;100.00;101698.16;5275479;28;20051;-66
2023/06/22 07:16:44;;;;;;;19.50;17.52;;;;;;;21.52;100.00;101697.53;5269691;28;20032;-66
2023/06/22 07:19:15;;;;;;;20.23;18.17;;;;;;;21.49;100.00;101697.09;5270083;28;20036;-66
2023/06/22 07:21:47;;;;;;;19.35;17.45;;;;;;;21.50;100.00;101693.38;5271745;28;20206;-66
2023/06/22 07:24:19;;;;;;;20.90;18.85;;;;;;;21.50;100.00;101690.66;5269073;28;20051;-66
2023/06/22 07:26:51;;;;;;;19.83;17.83;;;;;;;21.56;100.00;101692.56;5272106;28;20031;-67
2023/06/22 07:29:22;;;;;;;21.17;19.05;;;;;;;21.54;100.00;101689.22;5269994;28;20028;-66
2023/06/22 07:31:56;;;;;;;21.02;18.83;;;;;;;21.50;100.00;101696.06;5268547;28;20028;-64
2023/06/22 07:34:27;;;;;;;21.17;19.05;;;;;;;21.43;100.00;101682.41;5266150;28;20036;-68
2023/06/22 07:36:58;;;;;;;19.73;17.73;;;;;;;21.51;100.00;101676.88;5268778;28;20502;-66
2023/06/22 07:39:30;;;;;;;21.13;18.98;;;;;;;21.52;100.00;101678.53;5265770;28;20050;-67
2023/06/22 07:42:01;;;;;;;22.10;18.48;;;;;;;21.57;100.00;101664.41;5273014;28;20026;-65
2023/06/22 07:44:33;;;;;;;21.80;19.60;;;;;;;21.60;100.00;101657.72;5268312;28;20422;-65
2023/06/22 07:47:04;;;;;;;21.77;19.67;;;;;;;21.67;100.00;101655.94;5274179;28;20035;-65
2023/06/22 07:49:35;;;;;;;21.40;19.17;;;;;;;21.65;100.00;101650.69;5272570;28;20138;-65
2023/06/22 07:52:07;;;;;;;21.80;18.92;;;;;;;21.70;100.00;101641.94;5269094;28;20040;-66
2023/06/22 07:59:25;;;;;;;19.77;17.75;;;;;;;22.25;100.00;101614.94;5188483;27;20454;-49
2023/06/22 08:01:56;;;;;;;19.73;17.42;;;;;;;22.32;100.00;101612.28;5193560;28;20037;-49
2023/06/22 08:04:28;;;;;;;19.58;17.48;;;;;;;22.25;100.00;101610.34;5191207;28;20060;-49
2023/06/22 08:07:00;;;;;;;20.48;17.60;;;;;;;22.34;100.00;101591.19;5192484;28;20416;-49
2023/06/22 08:10:56;;;;;;;19.85;17.08;;;;;;;22.49;100.00;101589.16;5221235;27;20521;-55
2023/06/22 08:13:28;;;;;;;19.38;17.45;;;;;;;22.48;100.00;101584.78;5236380;28;20049;-54
2023/06/22 08:15:59;;;;;;;17.27;15.57;;;;;;;22.52;100.00;101583.31;5233537;28;20025;-53
2023/06/22 08:18:30;;;;;;;17.00;15.23;;;;;;;22.56;100.00;101589.16;5235838;28;20029;-55
2023/06/22 08:45:37;;;;;;;16.13;14.63;;;;;;;22.45;100.00;101547.94;5251048;27;20480;-47
2023/06/22 10:28:54;;;;;;;12.18;10.48;;;;;;;23.55;100.00;101362.53;5258340;27;20435;-44
2023/06/22 10:32:11;;;;;;;13.88;10.52;;;;;;;23.33;52.16;101405.91;5209671;27;20812;-47
2023/06/22 10:34:42;;;;;;;12.73;11.30;;;;;;;23.18;53.74;101405.66;5214247;28;20076;-45
2023/06/22 10:37:14;;;;;;;12.43;11.18;;;;;;;23.14;53.47;101415.88;5210506;28;20065;-45
2023/06/22 10:39:45;;;;;;;13.48;12.07;;;;;;;23.13;54.50;101424.91;5213597;28;20028;-45
2023/06/22 10:42:16;;;;;;;14.55;13.05;;;;;;;23.11;55.00;101429.59;5215195;28;20112;-44
2023/06/22 10:49:12;;;;;;;13.43;11.98;;;;;;;24.84;51.77;101463.06;5283939;27;20454;-51
2023/06/22 10:51:43;;;;;;;13.40;11.70;;;;;;;24.44;53.00;101465.56;5248256;28;20033;-51
2023/06/22 10:54:17;;;;;;;12.60;11.40;;;;;;;24.15;53.53;101467.88;5254808;28;20571;-49
2023/06/22 10:56:48;;;;;;;13.57;12.30;;;;;;;23.94;55.32;101461.16;5256066;28;20763;-50
2023/06/22 10:59:21;;;;;;;14.45;13.13;;;;;;;23.77;56.67;101456.72;5254485;28;20537;-49
2023/06/22 11:01:53;;;;;;;13.25;11.90;;;;;;;23.59;56.89;101456.81;5254365;28;20596;-48
2023/06/22 11:04:24;;;;;;;14.65;13.25;;;;;;;23.39;58.70;101453.53;5251251;28;20075;-49
